ICN weather

Incheon International Airport
Seoul, Incheon Gwang'yeogsi, South Korea

Public forecast

Using degrees Celsius for public forecast. Weather courtesy of forecast.io.

METAR (pilot weather report)

Retrieved 2019/04/22 13:30 UTC (29 minutes ago):

RKSI 221330Z 29003KT 260V330 CAVOK 13/07 Q1016 NOSIG

TAF (pilot weather forecast)

Retrieved 2019/04/22 12:00 UTC (2 hours ago):

TAF RKSI 221100Z 2212/2318 27007KT 7000 NSC TN11/2221Z TX22/2306Z BECMG 2214/2215 13005KT 4200 BR BECMG 2221/2222 7000 NSW BECMG 2302/2303 27006KT SCT030 BKN180 BECMG 2310/2311 07006KT 3500 -RA FEW010 BKN025 OVC100 TEMPO 2315/2318 1700